American Integrity — WDD2875 — position and weather

sailwx.info

Track history (hours):
 
Tides and Currents Weather Stations Pressure Air Temp Water Temp Dewpoint Dewpoint Depression Visibility Wind Speed Wind Dir Waves Ship Positions

American Integrity

Owner: American Steamship Company, Williamsville, NY. More information available from US FCC via Universal Licensing System and Coast Guard Vessel Documentation Center.

Last reported at 2017-May-28 03:47 UTC. Time now 2017-May-29 11:24 UTC.
Position N 47°02' W 091°34'.

; draft 8 m.

Type: Cargo ship. MMSI: 367120990.

Date/timePositionNaut miles runAvg speedWind from/ knotsBaromVisibWave heightAir tempDewpointWater temp
2017-May-28 03:47N 47°02' W 091°34'411.2
2017-May-28 03:28N 47°00' W 091°39'1 2.0
2017-May-28 03:00N 47°01' W 091°40'0 0.0
2017-May-27 10:58N 47°01' W 091°40'0 0.0
2017-May-27 10:30N 47°01' W 091°40'0 0.5
2017-May-27 10:00N 47°01' W 091°40'2 3.6
2017-May-27 09:30N 46°59' W 091°38'713.1
2017-May-27 09:00N 47°01' W 091°29'  
2017-May-21 14:32N 47°01' W 091°27'011.7
2017-May-21 14:30N 47°01' W 091°27'1111.5
2017-May-21 13:30N 46°55' W 091°42'510.9
2017-May-21 13:00N 46°53' W 091°49'510.3
2017-May-21 12:30N 46°50' W 091°55'5 9.8
2017-May-21 12:00N 46°48' W 092°02'3 6.9
2017-May-21 11:30N 46°46' W 092°06'2 3.4
2017-May-21 10:59N 46°45' W 092°07'0 0.1
2017-May-21 10:29N 46°45' W 092°07'0 0.0
2017-May-21 10:00N 46°45' W 092°07'0 0.0
2017-May-21 09:30N 46°45' W 092°07'0 0.0
2017-May-21 09:01N 46°45' W 092°07'0 0.0
2017-May-21 08:30N 46°45' W 092°07'0 0.0
2017-May-21 08:01N 46°45' W 092°07'0 0.0
2017-May-21 07:30N 46°45' W 092°07'0 0.0
2017-May-21 07:00N 46°45' W 092°07'0 0.0
2017-May-21 06:30N 46°45' W 092°07'0 0.0
2017-May-21 06:01N 46°45' W 092°07'0 0.0
2017-May-21 05:30N 46°45' W 092°07'0 0.0
2017-May-21 05:00N 46°45' W 092°07'0 0.0
2017-May-21 04:30N 46°45' W 092°07'0 0.0
2017-May-21 04:00N 46°45' W 092°07'0 0.0
2017-May-21 03:30N 46°45' W 092°07'0 0.0
2017-May-21 02:59N 46°45' W 092°07'0 0.0
2017-May-21 02:30N 46°45' W 092°07'0 0.0
2017-May-21 02:00N 46°45' W 092°07'0 0.0
2017-May-21 01:30N 46°45' W 092°07'0 0.0
2017-May-21 01:00N 46°45' W 092°07'0 0.0
2017-May-21 00:30N 46°45' W 092°07'0 0.0
2017-May-21 00:00N 46°45' W 092°07'0 0.0
2017-May-20 23:30N 46°45' W 092°07'0 0.0
2017-May-20 23:00N 46°45' W 092°07'0 0.0
2017-May-20 22:29N 46°45' W 092°07'0 0.0
2017-May-20 21:59N 46°45' W 092°07'0 0.0
2017-May-20 21:30N 46°45' W 092°07'0 0.0
2017-May-20 21:01N 46°45' W 092°07'0 0.0
2017-May-20 20:31N 46°45' W 092°07'0 0.0
2017-May-20 19:59N 46°45' W 092°07'0 0.0
2017-May-20 19:28N 46°45' W 092°07'0 0.0
2017-May-20 19:00N 46°45' W 092°07'0 0.0
2017-May-20 18:30N 46°45' W 092°07'0 0.0
2017-May-20 18:01N 46°45' W 092°07'0 0.0
2017-May-20 17:30N 46°45' W 092°07'0 0.0
2017-May-20 17:00N 46°45' W 092°07'0 0.0
2017-May-20 16:30N 46°45' W 092°07'0 0.0
2017-May-20 16:01N 46°45' W 092°07'0 0.0
2017-May-20 15:31N 46°45' W 092°07'1 2.1
2017-May-20 15:00N 46°45' W 092°06'3 5.6
2017-May-20 14:31N 46°47' W 092°03'1313.1
2017-May-20 13:30N 46°53' W 091°46'713.3
2017-May-20 13:00N 46°55' W 091°36'713.3
2017-May-20 12:30N 46°57' W 091°27'713.3
2017-May-20 11:58N 47°00' W 091°18'613.3
2017-May-20 11:30N 47°02' W 091°09'713.3
2017-May-20 10:57N 47°05' W 090°59'  
Track history (hours):
 
Tides and Currents Weather Stations Pressure Air Temp Water Temp Dewpoint Dewpoint Depression Visibility Wind Speed Wind Dir Waves Ship Positions

American Integrity

Owner: American Steamship Company, Williamsville, NY. More information available from US FCC via Universal Licensing System and Coast Guard Vessel Documentation Center.

Last reported at 2017-May-28 03:47 UTC. Time now 2017-May-29 11:24 UTC.
Position N 47°02' W 091°34'.

; draft 8 m.

Type: Cargo ship. MMSI: 367120990.

Date/timePositionNaut miles runAvg speedWind from/ knotsBaromVisibWave heightAir tempDewpointWater temp
2017-May-28 03:47N 47°02' W 091°34'411.2
2017-May-28 03:28N 47°00' W 091°39'1 2.0
2017-May-28 03:00N 47°01' W 091°40'0 0.0
2017-May-27 10:58N 47°01' W 091°40'0 0.0
2017-May-27 10:30N 47°01' W 091°40'0 0.5
2017-May-27 10:00N 47°01' W 091°40'2 3.6
2017-May-27 09:30N 46°59' W 091°38'713.1
2017-May-27 09:00N 47°01' W 091°29'  
2017-May-21 14:32N 47°01' W 091°27'011.7
2017-May-21 14:30N 47°01' W 091°27'1111.5
2017-May-21 13:30N 46°55' W 091°42'510.9
2017-May-21 13:00N 46°53' W 091°49'510.3
2017-May-21 12:30N 46°50' W 091°55'5 9.8
2017-May-21 12:00N 46°48' W 092°02'3 6.9
2017-May-21 11:30N 46°46' W 092°06'2 3.4
2017-May-21 10:59N 46°45' W 092°07'0 0.1
2017-May-21 10:29N 46°45' W 092°07'0 0.0
2017-May-21 10:00N 46°45' W 092°07'0 0.0
2017-May-21 09:30N 46°45' W 092°07'0 0.0
2017-May-21 09:01N 46°45' W 092°07'0 0.0
2017-May-21 08:30N 46°45' W 092°07'0 0.0
2017-May-21 08:01N 46°45' W 092°07'0 0.0
2017-May-21 07:30N 46°45' W 092°07'0 0.0
2017-May-21 07:00N 46°45' W 092°07'0 0.0
2017-May-21 06:30N 46°45' W 092°07'0 0.0
2017-May-21 06:01N 46°45' W 092°07'0 0.0
2017-May-21 05:30N 46°45' W 092°07'0 0.0
2017-May-21 05:00N 46°45' W 092°07'0 0.0
2017-May-21 04:30N 46°45' W 092°07'0 0.0
2017-May-21 04:00N 46°45' W 092°07'0 0.0
2017-May-21 03:30N 46°45' W 092°07'0 0.0
2017-May-21 02:59N 46°45' W 092°07'0 0.0
2017-May-21 02:30N 46°45' W 092°07'0 0.0
2017-May-21 02:00N 46°45' W 092°07'0 0.0
2017-May-21 01:30N 46°45' W 092°07'0 0.0
2017-May-21 01:00N 46°45' W 092°07'0 0.0
2017-May-21 00:30N 46°45' W 092°07'0 0.0
2017-May-21 00:00N 46°45' W 092°07'0 0.0
2017-May-20 23:30N 46°45' W 092°07'0 0.0
2017-May-20 23:00N 46°45' W 092°07'0 0.0
2017-May-20 22:29N 46°45' W 092°07'0 0.0
2017-May-20 21:59N 46°45' W 092°07'0 0.0
2017-May-20 21:30N 46°45' W 092°07'0 0.0
2017-May-20 21:01N 46°45' W 092°07'0 0.0
2017-May-20 20:31N 46°45' W 092°07'0 0.0
2017-May-20 19:59N 46°45' W 092°07'0 0.0
2017-May-20 19:28N 46°45' W 092°07'0 0.0
2017-May-20 19:00N 46°45' W 092°07'0 0.0
2017-May-20 18:30N 46°45' W 092°07'0 0.0
2017-May-20 18:01N 46°45' W 092°07'0 0.0
2017-May-20 17:30N 46°45' W 092°07'0 0.0
2017-May-20 17:00N 46°45' W 092°07'0 0.0
2017-May-20 16:30N 46°45' W 092°07'0 0.0
2017-May-20 16:01N 46°45' W 092°07'0 0.0
2017-May-20 15:31N 46°45' W 092°07'1 2.1
2017-May-20 15:00N 46°45' W 092°06'3 5.6
2017-May-20 14:31N 46°47' W 092°03'1313.1
2017-May-20 13:30N 46°53' W 091°46'713.3
2017-May-20 13:00N 46°55' W 091°36'713.3
2017-May-20 12:30N 46°57' W 091°27'713.3
2017-May-20 11:58N 47°00' W 091°18'613.3
2017-May-20 11:30N 47°02' W 091°09'713.3
2017-May-20 10:57N 47°05' W 090°59'  

Dump ship's entire track history